sensor_id;sensor_type;location;lat;lon;timestamp;P1;durP1;ratioP1;P2;durP2;ratioP2
47289;SDS011;33197;52.524;13.444;2022-09-20T00:03:37;4.20;;;1.15;;
47289;SDS011;33197;52.524;13.444;2022-09-20T00:06:05;3.40;;;1.40;;
47289;SDS011;33197;52.524;13.444;2022-09-20T00:08:34;3.22;;;1.05;;
47289;SDS011;33197;52.524;13.444;2022-09-20T00:11:06;4.20;;;0.90;;
47289;SDS011;33197;52.524;13.444;2022-09-20T00:13:36;4.63;;;0.82;;
47289;SDS011;33197;52.524;13.444;2022-09-20T00:16:08;2.00;;;1.02;;
47289;SDS011;33197;52.524;13.444;2022-09-20T00:18:37;2.92;;;1.23;;
47289;SDS011;33197;52.524;13.444;2022-09-20T00:21:04;2.25;;;0.90;;
47289;SDS011;33197;52.524;13.444;2022-09-20T00:23:33;4.25;;;1.38;;
47289;SDS011;33197;52.524;13.444;2022-09-20T00:26:02;4.75;;;2.10;;
47289;SDS011;33197;52.524;13.444;2022-09-20T00:28:31;5.03;;;1.30;;
47289;SDS011;33197;52.524;13.444;2022-09-20T00:31:00;3.78;;;1.10;;
47289;SDS011;33197;52.524;13.444;2022-09-20T00:33:27;3.38;;;0.90;;
47289;SDS011;33197;52.524;13.444;2022-09-20T00:36:14;3.67;;;1.73;;
47289;SDS011;33197;52.524;13.444;2022-09-20T00:38:42;4.88;;;1.10;;
47289;SDS011;33197;52.524;13.444;2022-09-20T00:41:09;2.65;;;1.55;;
47289;SDS011;33197;52.524;13.444;2022-09-20T00:43:37;3.50;;;0.85;;
47289;SDS011;33197;52.524;13.444;2022-09-20T00:46:14;4.05;;;1.00;;
47289;SDS011;33197;52.524;13.444;2022-09-20T00:48:48;1.55;;;0.90;;
47289;SDS011;33197;52.524;13.444;2022-09-20T00:51:16;5.53;;;1.15;;
47289;SDS011;33197;52.524;13.444;2022-09-20T00:53:49;3.90;;;1.10;;
47289;SDS011;33197;52.524;13.444;2022-09-20T00:56:18;3.35;;;1.05;;
47289;SDS011;33197;52.524;13.444;2022-09-20T00:58:49;4.72;;;1.05;;
47289;SDS011;33197;52.524;13.444;2022-09-20T01:01:19;3.05;;;0.90;;
47289;SDS011;33197;52.524;13.444;2022-09-20T01:03:47;3.55;;;1.13;;
47289;SDS011;33197;52.524;13.444;2022-09-20T01:06:15;3.45;;;0.93;;
47289;SDS011;33197;52.524;13.444;2022-09-20T01:08:44;7.97;;;1.77;;
47289;SDS011;33197;52.524;13.444;2022-09-20T01:11:15;2.55;;;1.30;;
47289;SDS011;33197;52.524;13.444;2022-09-20T01:13:42;2.10;;;0.98;;
47289;SDS011;33197;52.524;13.444;2022-09-20T01:16:10;1.58;;;0.90;;
47289;SDS011;33197;52.524;13.444;2022-09-20T01:18:38;2.35;;;0.90;;
47289;SDS011;33197;52.524;13.444;2022-09-20T01:21:06;2.65;;;0.88;;
47289;SDS011;33197;52.524;13.444;2022-09-20T01:26:13;1.88;;;0.90;;
47289;SDS011;33197;52.524;13.444;2022-09-20T01:29:09;2.95;;;0.90;;
47289;SDS011;33197;52.524;13.444;2022-09-20T01:31:44;2.58;;;0.98;;
47289;SDS011;33197;52.524;13.444;2022-09-20T01:34:14;4.93;;;1.10;;
47289;SDS011;33197;52.524;13.444;2022-09-20T01:36:54;2.35;;;0.80;;
47289;SDS011;33197;52.524;13.444;2022-09-20T02:00:01;3.00;;;1.80;;
47289;SDS011;33197;52.524;13.444;2022-09-20T02:22:03;3.78;;;1.80;;
47289;SDS011;33197;52.524;13.444;2022-09-20T02:24:57;2.65;;;1.50;;
47289;SDS011;33197;52.524;13.444;2022-09-20T02:27:41;5.57;;;1.70;;
47289;SDS011;33197;52.524;13.444;2022-09-20T02:38:43;2.25;;;1.33;;
47289;SDS011;33197;52.524;13.444;2022-09-20T02:44:35;4.25;;;1.10;;
47289;SDS011;33197;52.524;13.444;2022-09-20T02:55:41;3.40;;;1.17;;
47289;SDS011;33197;52.524;13.444;2022-09-20T03:09:39;2.30;;;0.90;;
47289;SDS011;33197;52.524;13.444;2022-09-20T03:12:25;5.47;;;1.88;;
47289;SDS011;33197;52.524;13.444;2022-09-20T03:14:59;3.15;;;0.80;;
47289;SDS011;33197;52.524;13.444;2022-09-20T03:17:55;3.22;;;1.17;;
47289;SDS011;33197;52.524;13.444;2022-09-20T03:20:42;5.22;;;0.90;;
47289;SDS011;33197;52.524;13.444;2022-09-20T03:34:44;1.70;;;0.90;;
47289;SDS011;33197;52.524;13.444;2022-09-20T03:42:57;4.00;;;1.20;;
47289;SDS011;33197;52.524;13.444;2022-09-20T03:45:35;2.85;;;1.05;;
47289;SDS011;33197;52.524;13.444;2022-09-20T04:05:10;7.93;;;3.30;;
47289;SDS011;33197;52.524;13.444;2022-09-20T04:13:29;5.38;;;3.40;;
47289;SDS011;33197;52.524;13.444;2022-09-20T04:23:51;4.15;;;2.55;;
47289;SDS011;33197;52.524;13.444;2022-09-20T04:26:27;7.75;;;3.15;;
47289;SDS011;33197;52.524;13.444;2022-09-20T04:28:58;3.25;;;2.60;;
47289;SDS011;33197;52.524;13.444;2022-09-20T04:34:21;6.07;;;3.75;;
47289;SDS011;33197;52.524;13.444;2022-09-20T04:37:19;10.93;;;3.78;;
47289;SDS011;33197;52.524;13.444;2022-09-20T04:39:58;5.68;;;3.90;;
47289;SDS011;33197;52.524;13.444;2022-09-20T04:45:31;5.88;;;3.95;;
47289;SDS011;33197;52.524;13.444;2022-09-20T04:48:22;7.25;;;4.13;;
47289;SDS011;33197;52.524;13.444;2022-09-20T04:56:39;3.85;;;2.25;;
47289;SDS011;33197;52.524;13.444;2022-09-20T05:07:59;4.43;;;1.52;;
47289;SDS011;33197;52.524;13.444;2022-09-20T05:10:50;4.10;;;1.38;;
47289;SDS011;33197;52.524;13.444;2022-09-20T05:26:02;3.30;;;1.45;;
47289;SDS011;33197;52.524;13.444;2022-09-20T05:28:50;4.85;;;1.23;;
47289;SDS011;33197;52.524;13.444;2022-09-20T05:34:32;2.47;;;1.40;;
47289;SDS011;33197;52.524;13.444;2022-09-20T05:37:15;3.60;;;1.50;;
47289;SDS011;33197;52.524;13.444;2022-09-20T05:39:56;5.43;;;1.77;;
47289;SDS011;33197;52.524;13.444;2022-09-20T05:45:16;2.65;;;1.40;;
47289;SDS011;33197;52.524;13.444;2022-09-20T05:47:58;4.32;;;1.33;;
47289;SDS011;33197;52.524;13.444;2022-09-20T05:53:28;3.38;;;1.55;;
47289;SDS011;33197;52.524;13.444;2022-09-20T06:01:48;4.95;;;1.60;;
47289;SDS011;33197;52.524;13.444;2022-09-20T06:04:25;2.13;;;1.23;;
47289;SDS011;33197;52.524;13.444;2022-09-20T06:12:29;5.53;;;1.38;;
47289;SDS011;33197;52.524;13.444;2022-09-20T06:15:25;4.70;;;1.77;;
47289;SDS011;33197;52.524;13.444;2022-09-20T06:18:02;3.70;;;1.50;;
47289;SDS011;33197;52.524;13.444;2022-09-20T06:20:45;3.00;;;1.40;;
47289;SDS011;33197;52.524;13.444;2022-09-20T06:23:20;4.90;;;1.60;;
47289;SDS011;33197;52.524;13.444;2022-09-20T06:25:51;5.05;;;1.50;;
47289;SDS011;33197;52.524;13.444;2022-09-20T06:28:25;3.40;;;1.50;;
47289;SDS011;33197;52.524;13.444;2022-09-20T06:30:55;8.10;;;2.33;;
47289;SDS011;33197;52.524;13.444;2022-09-20T06:33:26;6.32;;;2.35;;
47289;SDS011;33197;52.524;13.444;2022-09-20T06:36:00;9.68;;;2.20;;
47289;SDS011;33197;52.524;13.444;2022-09-20T06:38:54;3.90;;;1.70;;
47289;SDS011;33197;52.524;13.444;2022-09-20T06:42:01;9.65;;;2.50;;
47289;SDS011;33197;52.524;13.444;2022-09-20T06:44:28;6.95;;;1.92;;
47289;SDS011;33197;52.524;13.444;2022-09-20T06:46:55;5.63;;;1.65;;
47289;SDS011;33197;52.524;13.444;2022-09-20T06:49:22;7.93;;;1.50;;
47289;SDS011;33197;52.524;13.444;2022-09-20T06:51:49;5.07;;;1.50;;
47289;SDS011;33197;52.524;13.444;2022-09-20T06:54:17;3.60;;;1.33;;
47289;SDS011;33197;52.524;13.444;2022-09-20T06:56:46;5.35;;;1.30;;
47289;SDS011;33197;52.524;13.444;2022-09-20T06:59:14;3.30;;;1.67;;
47289;SDS011;33197;52.524;13.444;2022-09-20T07:01:41;6.35;;;1.88;;
47289;SDS011;33197;52.524;13.444;2022-09-20T07:04:09;6.55;;;1.88;;
47289;SDS011;33197;52.524;13.444;2022-09-20T07:06:36;4.85;;;2.17;;
47289;SDS011;33197;52.524;13.444;2022-09-20T07:09:03;4.50;;;1.77;;
47289;SDS011;33197;52.524;13.444;2022-09-20T07:11:31;15.25;;;2.72;;
47289;SDS011;33197;52.524;13.444;2022-09-20T07:14:00;5.60;;;3.10;;
47289;SDS011;33197;52.524;13.444;2022-09-20T07:16:27;13.98;;;3.55;;
47289;SDS011;33197;52.524;13.444;2022-09-20T07:18:54;6.95;;;3.53;;
47289;SDS011;33197;52.524;13.444;2022-09-20T07:21:22;5.75;;;3.72;;
47289;SDS011;33197;52.524;13.444;2022-09-20T07:23:50;6.28;;;3.80;;
47289;SDS011;33197;52.524;13.444;2022-09-20T07:26:19;7.72;;;3.53;;
47289;SDS011;33197;52.524;13.444;2022-09-20T07:28:48;8.00;;;3.35;;
47289;SDS011;33197;52.524;13.444;2022-09-20T07:31:17;11.10;;;3.78;;
47289;SDS011;33197;52.524;13.444;2022-09-20T07:33:45;6.63;;;3.45;;
47289;SDS011;33197;52.524;13.444;2022-09-20T07:36:12;5.28;;;3.70;;
47289;SDS011;33197;52.524;13.444;2022-09-20T07:38:39;8.70;;;3.30;;
47289;SDS011;33197;52.524;13.444;2022-09-20T07:41:08;7.43;;;3.60;;
47289;SDS011;33197;52.524;13.444;2022-09-20T07:43:36;5.90;;;3.80;;
47289;SDS011;33197;52.524;13.444;2022-09-20T07:46:03;9.77;;;3.67;;
47289;SDS011;33197;52.524;13.444;2022-09-20T07:48:31;4.70;;;3.00;;
47289;SDS011;33197;52.524;13.444;2022-09-20T07:51:04;7.25;;;3.08;;
47289;SDS011;33197;52.524;13.444;2022-09-20T07:53:36;6.72;;;3.42;;
47289;SDS011;33197;52.524;13.444;2022-09-20T07:56:13;5.10;;;2.85;;
47289;SDS011;33197;52.524;13.444;2022-09-20T07:58:41;5.60;;;2.40;;
47289;SDS011;33197;52.524;13.444;2022-09-20T08:01:17;7.50;;;2.05;;
47289;SDS011;33197;52.524;13.444;2022-09-20T08:03:45;5.90;;;2.47;;
47289;SDS011;33197;52.524;13.444;2022-09-20T08:06:12;4.60;;;2.30;;
47289;SDS011;33197;52.524;13.444;2022-09-20T08:08:44;6.55;;;2.40;;
47289;SDS011;33197;52.524;13.444;2022-09-20T08:11:15;6.57;;;2.58;;
47289;SDS011;33197;52.524;13.444;2022-09-20T08:13:48;4.53;;;1.70;;
47289;SDS011;33197;52.524;13.444;2022-09-20T08:16:40;6.85;;;1.50;;
47289;SDS011;33197;52.524;13.444;2022-09-20T08:19:17;4.65;;;1.40;;
47289;SDS011;33197;52.524;13.444;2022-09-20T08:21:46;5.78;;;2.00;;
47289;SDS011;33197;52.524;13.444;2022-09-20T08:24:14;7.53;;;1.58;;
47289;SDS011;33197;52.524;13.444;2022-09-20T08:26:42;4.03;;;1.20;;
47289;SDS011;33197;52.524;13.444;2022-09-20T08:29:09;9.63;;;3.50;;
47289;SDS011;33197;52.524;13.444;2022-09-20T08:31:38;3.97;;;1.55;;
47289;SDS011;33197;52.524;13.444;2022-09-20T08:34:09;11.45;;;1.95;;
47289;SDS011;33197;52.524;13.444;2022-09-20T08:36:38;5.47;;;1.40;;
47289;SDS011;33197;52.524;13.444;2022-09-20T08:39:07;4.55;;;1.27;;
47289;SDS011;33197;52.524;13.444;2022-09-20T08:41:56;3.75;;;1.30;;
47289;SDS011;33197;52.524;13.444;2022-09-20T08:44:30;5.05;;;1.55;;
47289;SDS011;33197;52.524;13.444;2022-09-20T08:49:29;5.55;;;1.23;;
47289;SDS011;33197;52.524;13.444;2022-09-20T08:51:56;4.32;;;1.80;;
47289;SDS011;33197;52.524;13.444;2022-09-20T08:54:25;6.13;;;2.00;;
47289;SDS011;33197;52.524;13.444;2022-09-20T08:57:05;4.60;;;1.65;;
47289;SDS011;33197;52.524;13.444;2022-09-20T08:59:39;5.70;;;1.23;;
47289;SDS011;33197;52.524;13.444;2022-09-20T09:02:17;5.15;;;1.23;;
47289;SDS011;33197;52.524;13.444;2022-09-20T09:04:47;7.65;;;1.20;;
47289;SDS011;33197;52.524;13.444;2022-09-20T09:07:15;4.60;;;1.10;;
47289;SDS011;33197;52.524;13.444;2022-09-20T09:09:44;8.07;;;1.13;;
47289;SDS011;33197;52.524;13.444;2022-09-20T09:12:15;2.72;;;1.10;;
47289;SDS011;33197;52.524;13.444;2022-09-20T09:14:45;4.68;;;1.23;;
47289;SDS011;33197;52.524;13.444;2022-09-20T09:17:18;4.53;;;0.93;;
47289;SDS011;33197;52.524;13.444;2022-09-20T09:19:52;6.60;;;1.42;;
47289;SDS011;33197;52.524;13.444;2022-09-20T09:27:47;2.30;;;0.90;;
47289;SDS011;33197;52.524;13.444;2022-09-20T09:30:19;4.68;;;1.00;;
47289;SDS011;33197;52.524;13.444;2022-09-20T09:33:14;1.67;;;1.00;;
47289;SDS011;33197;52.524;13.444;2022-09-20T09:35:40;4.88;;;1.00;;
47289;SDS011;33197;52.524;13.444;2022-09-20T09:38:14;1.83;;;0.90;;
47289;SDS011;33197;52.524;13.444;2022-09-20T09:40:48;6.20;;;1.60;;
47289;SDS011;33197;52.524;13.444;2022-09-20T09:43:22;4.88;;;0.80;;
47289;SDS011;33197;52.524;13.444;2022-09-20T09:45:56;3.50;;;0.75;;
47289;SDS011;33197;52.524;13.444;2022-09-20T09:48:43;3.08;;;0.93;;
47289;SDS011;33197;52.524;13.444;2022-09-20T09:51:16;5.63;;;1.35;;
47289;SDS011;33197;52.524;13.444;2022-09-20T09:53:45;3.70;;;1.00;;
47289;SDS011;33197;52.524;13.444;2022-09-20T09:56:22;4.43;;;0.90;;
47289;SDS011;33197;52.524;13.444;2022-09-20T09:59:05;5.50;;;2.00;;
47289;SDS011;33197;52.524;13.444;2022-09-20T10:01:53;1.95;;;0.60;;
47289;SDS011;33197;52.524;13.444;2022-09-20T10:07:31;3.05;;;1.58;;
47289;SDS011;33197;52.524;13.444;2022-09-20T10:10:26;4.25;;;1.17;;
47289;SDS011;33197;52.524;13.444;2022-09-20T10:19:44;4.95;;;1.50;;
47289;SDS011;33197;52.524;13.444;2022-09-20T10:21:42;4.88;;;1.90;;
47289;SDS011;33197;52.524;13.444;2022-09-20T10:24:32;2.80;;;1.67;;
47289;SDS011;33197;52.524;13.444;2022-09-20T10:36:10;3.90;;;1.55;;
47289;SDS011;33197;52.524;13.444;2022-09-20T10:38:15;8.65;;;1.85;;
47289;SDS011;33197;52.524;13.444;2022-09-20T10:47:45;2.58;;;1.70;;
47289;SDS011;33197;52.524;13.444;2022-09-20T10:49:41;4.70;;;1.30;;
47289;SDS011;33197;52.524;13.444;2022-09-20T10:55:37;6.25;;;2.47;;
47289;SDS011;33197;52.524;13.444;2022-09-20T10:58:29;5.85;;;2.42;;
47289;SDS011;33197;52.524;13.444;2022-09-20T11:01:08;5.78;;;2.00;;
47289;SDS011;33197;52.524;13.444;2022-09-20T11:03:50;6.05;;;2.28;;
47289;SDS011;33197;52.524;13.444;2022-09-20T11:09:25;7.15;;;3.25;;
47289;SDS011;33197;52.524;13.444;2022-09-20T11:12:32;6.28;;;2.83;;
47289;SDS011;33197;52.524;13.444;2022-09-20T11:14:54;5.90;;;1.13;;
47289;SDS011;33197;52.524;13.444;2022-09-20T11:22:39;8.60;;;1.38;;
47289;SDS011;33197;52.524;13.444;2022-09-20T11:27:48;4.13;;;1.40;;
47289;SDS011;33197;52.524;13.444;2022-09-20T11:30:19;5.75;;;1.10;;
47289;SDS011;33197;52.524;13.444;2022-09-20T11:38:01;2.65;;;0.70;;
47289;SDS011;33197;52.524;13.444;2022-09-20T11:40:31;4.90;;;1.23;;
47289;SDS011;33197;52.524;13.444;2022-09-20T11:43:01;3.35;;;1.00;;
47289;SDS011;33197;52.524;13.444;2022-09-20T11:45:32;1.92;;;0.85;;
47289;SDS011;33197;52.524;13.444;2022-09-20T11:48:06;5.00;;;1.35;;
47289;SDS011;33197;52.524;13.444;2022-09-20T11:50:39;2.72;;;0.90;;
47289;SDS011;33197;52.524;13.444;2022-09-20T11:56:26;3.42;;;1.00;;
47289;SDS011;33197;52.524;13.444;2022-09-20T11:58:55;2.92;;;1.48;;
47289;SDS011;33197;52.524;13.444;2022-09-20T12:01:34;4.93;;;1.40;;
47289;SDS011;33197;52.524;13.444;2022-09-20T12:09:53;4.35;;;1.48;;
47289;SDS011;33197;52.524;13.444;2022-09-20T12:12:35;2.95;;;1.30;;
47289;SDS011;33197;52.524;13.444;2022-09-20T12:28:47;3.72;;;2.08;;
47289;SDS011;33197;52.524;13.444;2022-09-20T12:39:35;4.07;;;2.17;;
47289;SDS011;33197;52.524;13.444;2022-09-20T12:47:20;3.47;;;1.95;;
47289;SDS011;33197;52.524;13.444;2022-09-20T12:49:49;4.28;;;1.70;;
47289;SDS011;33197;52.524;13.444;2022-09-20T12:52:46;3.13;;;1.20;;
47289;SDS011;33197;52.524;13.444;2022-09-20T12:55:45;3.38;;;1.10;;
47289;SDS011;33197;52.524;13.444;2022-09-20T12:58:17;5.00;;;1.30;;
47289;SDS011;33197;52.524;13.444;2022-09-20T13:00:49;2.80;;;1.25;;
47289;SDS011;33197;52.524;13.444;2022-09-20T13:08:46;4.90;;;1.10;;
47289;SDS011;33197;52.524;13.444;2022-09-20T13:13:55;3.05;;;0.90;;
47289;SDS011;33197;52.524;13.444;2022-09-20T13:19:39;1.70;;;0.70;;
47289;SDS011;33197;52.524;13.444;2022-09-20T13:22:13;1.33;;;0.60;;
47289;SDS011;33197;52.524;13.444;2022-09-20T13:24:47;2.22;;;0.60;;
47289;SDS011;33197;52.524;13.444;2022-09-20T13:27:17;2.97;;;0.70;;
47289;SDS011;33197;52.524;13.444;2022-09-20T13:29:50;1.60;;;0.70;;
47289;SDS011;33197;52.524;13.444;2022-09-20T13:32:25;2.42;;;0.63;;
47289;SDS011;33197;52.524;13.444;2022-09-20T13:37:36;1.38;;;0.70;;
47289;SDS011;33197;52.524;13.444;2022-09-20T13:40:04;1.23;;;0.45;;
47289;SDS011;33197;52.524;13.444;2022-09-20T13:42:32;6.38;;;0.90;;
47289;SDS011;33197;52.524;13.444;2022-09-20T13:45:03;3.13;;;0.70;;
47289;SDS011;33197;52.524;13.444;2022-09-20T13:47:30;1.10;;;0.60;;
47289;SDS011;33197;52.524;13.444;2022-09-20T13:49:58;1.83;;;0.63;;
47289;SDS011;33197;52.524;13.444;2022-09-20T13:52:47;2.22;;;0.70;;
47289;SDS011;33197;52.524;13.444;2022-09-20T13:55:32;0.98;;;0.50;;
47289;SDS011;33197;52.524;13.444;2022-09-20T13:58:03;0.70;;;0.40;;
47289;SDS011;33197;52.524;13.444;2022-09-20T14:00:34;4.15;;;0.90;;
47289;SDS011;33197;52.524;13.444;2022-09-20T14:03:03;1.70;;;0.80;;
47289;SDS011;33197;52.524;13.444;2022-09-20T14:05:30;1.77;;;0.73;;
47289;SDS011;33197;52.524;13.444;2022-09-20T14:07:58;1.10;;;0.63;;
47289;SDS011;33197;52.524;13.444;2022-09-20T14:10:30;1.95;;;0.80;;
47289;SDS011;33197;52.524;13.444;2022-09-20T14:13:00;1.95;;;0.60;;
47289;SDS011;33197;52.524;13.444;2022-09-20T14:15:33;2.47;;;0.73;;
47289;SDS011;33197;52.524;13.444;2022-09-20T14:18:10;0.73;;;0.50;;
47289;SDS011;33197;52.524;13.444;2022-09-20T14:20:45;0.55;;;0.40;;
47289;SDS011;33197;52.524;13.444;2022-09-20T14:23:23;1.70;;;0.43;;
47289;SDS011;33197;52.524;13.444;2022-09-20T14:26:04;1.63;;;0.50;;
47289;SDS011;33197;52.524;13.444;2022-09-20T14:28:32;1.85;;;0.55;;
47289;SDS011;33197;52.524;13.444;2022-09-20T14:31:06;1.27;;;0.40;;
47289;SDS011;33197;52.524;13.444;2022-09-20T14:33:41;2.13;;;0.90;;
47289;SDS011;33197;52.524;13.444;2022-09-20T14:36:14;1.25;;;0.47;;
47289;SDS011;33197;52.524;13.444;2022-09-20T14:38:42;3.22;;;0.73;;
47289;SDS011;33197;52.524;13.444;2022-09-20T14:41:11;2.78;;;0.65;;
47289;SDS011;33197;52.524;13.444;2022-09-20T14:43:39;1.05;;;0.70;;
47289;SDS011;33197;52.524;13.444;2022-09-20T14:46:14;2.15;;;0.60;;
47289;SDS011;33197;52.524;13.444;2022-09-20T14:48:42;3.53;;;0.68;;
47289;SDS011;33197;52.524;13.444;2022-09-20T14:51:19;2.58;;;0.45;;
47289;SDS011;33197;52.524;13.444;2022-09-20T14:53:49;0.30;;;0.30;;
47289;SDS011;33197;52.524;13.444;2022-09-20T14:56:26;1.30;;;0.40;;
47289;SDS011;33197;52.524;13.444;2022-09-20T14:58:59;0.57;;;0.45;;
47289;SDS011;33197;52.524;13.444;2022-09-20T15:01:32;3.30;;;0.60;;
47289;SDS011;33197;52.524;13.444;2022-09-20T15:04:08;1.15;;;0.52;;
47289;SDS011;33197;52.524;13.444;2022-09-20T15:06:41;1.98;;;0.70;;
47289;SDS011;33197;52.524;13.444;2022-09-20T15:09:09;0.65;;;0.50;;
47289;SDS011;33197;52.524;13.444;2022-09-20T15:11:38;0.70;;;0.40;;
47289;SDS011;33197;52.524;13.444;2022-09-20T15:14:06;2.38;;;0.50;;
47289;SDS011;33197;52.524;13.444;2022-09-20T15:16:34;3.33;;;0.43;;
47289;SDS011;33197;52.524;13.444;2022-09-20T15:19:01;3.35;;;0.65;;
47289;SDS011;33197;52.524;13.444;2022-09-20T15:21:28;5.28;;;0.70;;
47289;SDS011;33197;52.524;13.444;2022-09-20T15:23:56;2.22;;;0.70;;
47289;SDS011;33197;52.524;13.444;2022-09-20T15:26:23;2.25;;;0.77;;
47289;SDS011;33197;52.524;13.444;2022-09-20T15:28:50;1.50;;;0.63;;
47289;SDS011;33197;52.524;13.444;2022-09-20T15:31:17;2.55;;;0.47;;
47289;SDS011;33197;52.524;13.444;2022-09-20T15:33:45;2.95;;;0.70;;
47289;SDS011;33197;52.524;13.444;2022-09-20T15:36:12;1.73;;;1.00;;
47289;SDS011;33197;52.524;13.444;2022-09-20T15:38:39;2.22;;;1.08;;
47289;SDS011;33197;52.524;13.444;2022-09-20T15:41:07;1.95;;;0.30;;
47289;SDS011;33197;52.524;13.444;2022-09-20T15:43:34;3.47;;;0.88;;
47289;SDS011;33197;52.524;13.444;2022-09-20T15:46:20;3.97;;;0.70;;
47289;SDS011;33197;52.524;13.444;2022-09-20T15:48:48;1.52;;;0.50;;
47289;SDS011;33197;52.524;13.444;2022-09-20T15:51:15;3.50;;;0.90;;
47289;SDS011;33197;52.524;13.444;2022-09-20T15:53:43;3.00;;;0.82;;
47289;SDS011;33197;52.524;13.444;2022-09-20T15:56:21;1.55;;;0.65;;
47289;SDS011;33197;52.524;13.444;2022-09-20T15:58:59;0.85;;;0.40;;
47289;SDS011;33197;52.524;13.444;2022-09-20T16:01:28;1.65;;;0.60;;
47289;SDS011;33197;52.524;13.444;2022-09-20T16:04:11;1.63;;;0.70;;
47289;SDS011;33197;52.524;13.444;2022-09-20T16:06:40;3.22;;;1.00;;
47289;SDS011;33197;52.524;13.444;2022-09-20T16:09:10;2.70;;;1.13;;
47289;SDS011;33197;52.524;13.444;2022-09-20T16:11:37;2.15;;;1.00;;
47289;SDS011;33197;52.524;13.444;2022-09-20T16:14:05;4.45;;;3.22;;
47289;SDS011;33197;52.524;13.444;2022-09-20T16:16:33;2.75;;;1.77;;
47289;SDS011;33197;52.524;13.444;2022-09-20T16:19:06;7.55;;;4.95;;
47289;SDS011;33197;52.524;13.444;2022-09-20T16:21:49;3.22;;;1.92;;
47289;SDS011;33197;52.524;13.444;2022-09-20T16:24:25;4.93;;;2.22;;
47289;SDS011;33197;52.524;13.444;2022-09-20T16:26:53;3.90;;;1.23;;
47289;SDS011;33197;52.524;13.444;2022-09-20T16:29:20;2.78;;;1.17;;
47289;SDS011;33197;52.524;13.444;2022-09-20T16:31:48;5.60;;;3.50;;
47289;SDS011;33197;52.524;13.444;2022-09-20T16:34:20;6.15;;;4.70;;
47289;SDS011;33197;52.524;13.444;2022-09-20T16:39:25;2.75;;;1.70;;
47289;SDS011;33197;52.524;13.444;2022-09-20T16:41:54;3.15;;;1.58;;
47289;SDS011;33197;52.524;13.444;2022-09-20T16:44:22;5.60;;;2.67;;
47289;SDS011;33197;52.524;13.444;2022-09-20T16:46:50;2.40;;;1.20;;
47289;SDS011;33197;52.524;13.444;2022-09-20T16:49:17;4.13;;;1.40;;
47289;SDS011;33197;52.524;13.444;2022-09-20T16:51:44;4.28;;;2.30;;
47289;SDS011;33197;52.524;13.444;2022-09-20T16:54:13;5.53;;;2.47;;
47289;SDS011;33197;52.524;13.444;2022-09-20T16:56:42;2.22;;;1.45;;
47289;SDS011;33197;52.524;13.444;2022-09-20T16:59:11;1.85;;;1.23;;
47289;SDS011;33197;52.524;13.444;2022-09-20T17:01:39;4.30;;;2.03;;
47289;SDS011;33197;52.524;13.444;2022-09-20T17:04:06;1.80;;;1.00;;
47289;SDS011;33197;52.524;13.444;2022-09-20T17:06:35;7.22;;;1.90;;
47289;SDS011;33197;52.524;13.444;2022-09-20T17:09:03;2.38;;;1.20;;
47289;SDS011;33197;52.524;13.444;2022-09-20T17:11:32;9.90;;;5.18;;
47289;SDS011;33197;52.524;13.444;2022-09-20T17:14:00;7.22;;;3.38;;
47289;SDS011;33197;52.524;13.444;2022-09-20T17:16:28;7.13;;;4.63;;
47289;SDS011;33197;52.524;13.444;2022-09-20T17:18:57;4.45;;;2.55;;
47289;SDS011;33197;52.524;13.444;2022-09-20T17:21:27;5.28;;;3.72;;
47289;SDS011;33197;52.524;13.444;2022-09-20T17:23:56;14.75;;;9.38;;
47289;SDS011;33197;52.524;13.444;2022-09-20T17:26:25;13.77;;;8.52;;
47289;SDS011;33197;52.524;13.444;2022-09-20T17:28:57;6.45;;;3.17;;
47289;SDS011;33197;52.524;13.444;2022-09-20T17:31:26;3.53;;;2.13;;
47289;SDS011;33197;52.524;13.444;2022-09-20T17:33:56;3.55;;;2.00;;
47289;SDS011;33197;52.524;13.444;2022-09-20T17:36:27;2.08;;;1.20;;
47289;SDS011;33197;52.524;13.444;2022-09-20T17:38:55;4.55;;;3.10;;
47289;SDS011;33197;52.524;13.444;2022-09-20T17:41:30;6.03;;;3.85;;
47289;SDS011;33197;52.524;13.444;2022-09-20T17:43:59;4.82;;;3.67;;
47289;SDS011;33197;52.524;13.444;2022-09-20T17:46:28;5.30;;;3.85;;
47289;SDS011;33197;52.524;13.444;2022-09-20T17:48:58;3.97;;;2.70;;
47289;SDS011;33197;52.524;13.444;2022-09-20T17:51:28;2.70;;;2.10;;
47289;SDS011;33197;52.524;13.444;2022-09-20T17:56:29;2.88;;;1.85;;
47289;SDS011;33197;52.524;13.444;2022-09-20T17:58:57;2.50;;;1.60;;
47289;SDS011;33197;52.524;13.444;2022-09-20T18:01:26;2.88;;;1.63;;
47289;SDS011;33197;52.524;13.444;2022-09-20T18:03:55;4.20;;;1.60;;
47289;SDS011;33197;52.524;13.444;2022-09-20T18:06:26;4.38;;;2.30;;
47289;SDS011;33197;52.524;13.444;2022-09-20T18:11:27;2.80;;;1.80;;
47289;SDS011;33197;52.524;13.444;2022-09-20T18:16:26;7.80;;;2.50;;
47289;SDS011;33197;52.524;13.444;2022-09-20T18:18:53;4.78;;;2.55;;
47289;SDS011;33197;52.524;13.444;2022-09-20T18:21:21;5.03;;;3.38;;
47289;SDS011;33197;52.524;13.444;2022-09-20T18:23:50;11.32;;;6.45;;
47289;SDS011;33197;52.524;13.444;2022-09-20T18:26:24;11.45;;;7.57;;
47289;SDS011;33197;52.524;13.444;2022-09-20T18:29:04;5.70;;;3.63;;
47289;SDS011;33197;52.524;13.444;2022-09-20T18:31:38;5.38;;;2.95;;
47289;SDS011;33197;52.524;13.444;2022-09-20T18:34:13;4.57;;;2.92;;
47289;SDS011;33197;52.524;13.444;2022-09-20T18:36:47;4.50;;;3.00;;
47289;SDS011;33197;52.524;13.444;2022-09-20T18:39:21;5.13;;;2.20;;
47289;SDS011;33197;52.524;13.444;2022-09-20T18:41:50;3.45;;;2.08;;
47289;SDS011;33197;52.524;13.444;2022-09-20T18:44:18;4.60;;;2.63;;
47289;SDS011;33197;52.524;13.444;2022-09-20T18:46:46;6.68;;;2.38;;
47289;SDS011;33197;52.524;13.444;2022-09-20T18:49:14;4.60;;;2.60;;
47289;SDS011;33197;52.524;13.444;2022-09-20T18:51:42;4.05;;;2.42;;
47289;SDS011;33197;52.524;13.444;2022-09-20T18:54:10;4.45;;;2.83;;
47289;SDS011;33197;52.524;13.444;2022-09-20T18:56:38;10.70;;;7.32;;
47289;SDS011;33197;52.524;13.444;2022-09-20T18:59:09;11.73;;;7.80;;
47289;SDS011;33197;52.524;13.444;2022-09-20T19:01:54;13.35;;;7.38;;
47289;SDS011;33197;52.524;13.444;2022-09-20T19:12:19;5.20;;;2.83;;
47289;SDS011;33197;52.524;13.444;2022-09-20T19:20:44;5.03;;;2.28;;
47289;SDS011;33197;52.524;13.444;2022-09-20T19:23:24;3.47;;;1.98;;
47289;SDS011;33197;52.524;13.444;2022-09-20T19:28:30;6.63;;;4.50;;
47289;SDS011;33197;52.524;13.444;2022-09-20T19:30:58;11.40;;;7.38;;
47289;SDS011;33197;52.524;13.444;2022-09-20T19:33:25;9.50;;;6.35;;
47289;SDS011;33197;52.524;13.444;2022-09-20T19:35:53;7.43;;;4.20;;
47289;SDS011;33197;52.524;13.444;2022-09-20T19:38:29;6.78;;;2.60;;
47289;SDS011;33197;52.524;13.444;2022-09-20T19:51:34;9.52;;;5.57;;
47289;SDS011;33197;52.524;13.444;2022-09-20T19:54:03;15.77;;;10.18;;
47289;SDS011;33197;52.524;13.444;2022-09-20T19:56:34;13.32;;;8.35;;
47289;SDS011;33197;52.524;13.444;2022-09-20T19:59:13;6.20;;;3.90;;
47289;SDS011;33197;52.524;13.444;2022-09-20T20:01:43;9.23;;;4.60;;
47289;SDS011;33197;52.524;13.444;2022-09-20T20:04:10;8.75;;;5.50;;
47289;SDS011;33197;52.524;13.444;2022-09-20T20:09:37;7.68;;;4.20;;
47289;SDS011;33197;52.524;13.444;2022-09-20T20:12:16;5.40;;;2.90;;
47289;SDS011;33197;52.524;13.444;2022-09-20T20:14:57;5.57;;;2.92;;
47289;SDS011;33197;52.524;13.444;2022-09-20T20:20:24;5.07;;;2.53;;
47289;SDS011;33197;52.524;13.444;2022-09-20T20:26:18;6.47;;;2.40;;
47289;SDS011;33197;52.524;13.444;2022-09-20T20:28:47;3.97;;;2.25;;
47289;SDS011;33197;52.524;13.444;2022-09-20T20:31:16;3.78;;;2.60;;